Stolt Spray — ZCSQ9 — position and weather

sailwx.info

Track history (hours):
 
Tides and Currents Weather Stations Pressure Air Temp Water Temp Dewpoint Dewpoint Depression Visibility Wind Speed Wind Dir Waves Ship Positions

Stolt Spray

Last reported at 2016-Jul-01 09:34 UTC. Time now 2016-Jul-01 10:04 UTC.
Position N 51°15' E 004°22'.

Length 163 m; draft 9.6 m.

Type: Ship (hazmat cat A). MMSI: 319591000.

Date/timePositionNaut miles runAvg speedWind from/ knotsBaromVisibWave heightAir tempDewpointWater temp
2016-Jul-01 09:34N 51°15' E 004°22'0 0.0
2016-Jul-01 08:31N 51°15' E 004°22'0 0.0
2016-Jul-01 07:31N 51°15' E 004°22'0 0.0
2016-Jul-01 06:31N 51°15' E 004°22'0 0.0
2016-Jul-01 05:31N 51°15' E 004°22'0 0.0
2016-Jul-01 04:31N 51°15' E 004°22'0 0.0
2016-Jul-01 03:31N 51°15' E 004°22'0 0.0
2016-Jul-01 02:31N 51°15' E 004°22'0 0.0
2016-Jul-01 01:28N 51°15' E 004°22'0 0.0
2016-Jul-01 00:31N 51°15' E 004°22'0 0.0
2016-Jun-30 23:31N 51°15' E 004°22'0 0.0
2016-Jun-30 22:31N 51°15' E 004°22'0 0.0
2016-Jun-30 21:31N 51°15' E 004°22'0 0.0
2016-Jun-30 20:31N 51°15' E 004°22'0 0.0
2016-Jun-30 19:31N 51°15' E 004°22'0 0.0
2016-Jun-30 18:31N 51°15' E 004°22'0 0.0
2016-Jun-30 17:28N 51°15' E 004°22'0 0.0
2016-Jun-30 16:28N 51°15' E 004°22'0 0.0
2016-Jun-30 15:31N 51°15' E 004°22'0 0.0
2016-Jun-30 14:31N 51°15' E 004°22'0 0.0
2016-Jun-30 13:31N 51°15' E 004°22'0 0.0
2016-Jun-30 12:28N 51°15' E 004°22'0 0.0
2016-Jun-30 11:31N 51°15' E 004°22'0 0.0
2016-Jun-30 10:28N 51°15' E 004°22'0 0.0
2016-Jun-30 09:31N 51°15' E 004°22'0 0.0
2016-Jun-30 08:28N 51°15' E 004°22'0 0.0
2016-Jun-30 07:31N 51°15' E 004°22'0 0.0
2016-Jun-30 06:25N 51°15' E 004°22'0 0.0
2016-Jun-30 05:31N 51°15' E 004°22'0 0.0
2016-Jun-30 04:31N 51°15' E 004°22'0 0.0
2016-Jun-30 03:31N 51°15' E 004°22'0 0.0
2016-Jun-30 02:31N 51°15' E 004°22'0 0.0
2016-Jun-30 01:31N 51°15' E 004°22'0 0.0
2016-Jun-30 00:31N 51°15' E 004°22'0 0.0
2016-Jun-29 23:31N 51°15' E 004°22'0 0.0
2016-Jun-29 22:31N 51°15' E 004°22'0 0.0
2016-Jun-29 21:31N 51°15' E 004°22'0 0.0
2016-Jun-29 20:31N 51°15' E 004°22'3 2.7
2016-Jun-29 19:33N 51°18' E 004°20'4 3.9
2016-Jun-29 18:27N 51°22' E 004°17'0 0.0
2016-Jun-29 16:21N 51°22' E 004°17'0 0.0
2016-Jun-29 08:27N 51°22' E 004°17'0 0.0
2016-Jun-29 06:09N 51°22' E 004°17'0 0.0
2016-Jun-29 04:15N 51°22' E 004°17'0 0.0
2016-Jun-28 17:34N 51°22' E 004°17'1 0.9
2016-Jun-28 16:33N 51°21' E 004°17'2 1.7
2016-Jun-28 15:33N 51°21' E 004°14'10 9.7
2016-Jun-28 14:33N 51°26' E 004°01'1110.6
2016-Jun-28 13:33N 51°22' E 003°45'9 9.1
2016-Jun-28 12:33N 51°25' E 003°31'1110.7
2016-Jun-28 11:34N 51°25' E 003°14'1010.0
2016-Jun-28 10:33N 51°23' E 002°58'1110.9
2016-Jun-28 09:33N 51°22' E 002°41'4 3.0
2016-Jun-28 08:17N 51°25' E 002°36'0 0.0
2016-Jun-28 07:32N 51°25' E 002°36'0 0.0
2016-Jun-28 04:32N 51°25' E 002°36'0 0.1
2016-Jun-28 03:23N 51°25' E 002°36'0 0.0
2016-Jun-28 02:32N 51°25' E 002°36'0 0.0
2016-Jun-28 00:26N 51°25' E 002°36'0 0.0
2016-Jun-27 19:20N 51°25' E 002°36'0 0.0
2016-Jun-27 18:26N 51°25' E 002°36'0 0.0
2016-Jun-27 17:23N 51°25' E 002°36'0 0.0
2016-Jun-27 16:32N 51°25' E 002°36'0 0.1
2016-Jun-27 15:14N 51°25' E 002°36'0 0.1
2016-Jun-27 14:29N 51°25' E 002°36'16 2.7
2016-Jun-27 08:34N 51°17' E 002°14'1514.8
2016-Jun-27 07:33N 51°10' E 001°53'1515.5
2016-Jun-27 06:33N 50°59' E 001°35'4814.4
2016-Jun-27 03:13N 50°26' E 000°40'2615.4
2016-Jun-27 01:33N 50°19' E 000°01'21813.6
2016-Jun-26 09:29N 48°56' W 005°10'63213.3
2016-Jun-24 10:06N 38°59' W 009°57'913.6
2016-Jun-24 09:24N 38°49' W 009°57'1113.5
2016-Jun-24 08:33N 38°38' W 009°55'5613.8
2016-Jun-24 04:32N 37°44' W 009°40'4313.3
2016-Jun-24 01:19N 37°02' W 009°27'2812.8
2016-Jun-23 23:07N 36°39' W 009°07'2213.7
2016-Jun-23 21:32N 36°33' W 008°41'1313.8
2016-Jun-23 20:33N 36°30' W 008°25'1414.0
2016-Jun-23 19:33N 36°27' W 008°08'12814.2
2016-Jun-23 10:31N 35°58' W 005°33'1312.5
2016-Jun-23 09:31N 36°01' W 005°18'21913.6
2016-Jun-22 17:28N 36°39' W 000°51'1313.8
2016-Jun-22 16:33N 36°42' W 000°35'1414.1
2016-Jun-22 15:33N 36°45' W 000°18'1514.4
2016-Jun-22 14:33N 36°48' W 000°00'9215.2
2016-Jun-22 08:31N 37°06' E 001°52'1414.9
2016-Jun-22 07:33N 37°09' E 002°09'1814.8
2016-Jun-22 06:22N 37°13' E 002°31'1214.4
2016-Jun-22 05:32N 37°16' E 002°45'1414.1
2016-Jun-22 04:33N 37°18' E 003°03'2813.8
2016-Jun-22 02:33N 37°24' E 003°36'  
Track history (hours):
 
Tides and Currents Weather Stations Pressure Air Temp Water Temp Dewpoint Dewpoint Depression Visibility Wind Speed Wind Dir Waves Ship Positions

Stolt Spray

Last reported at 2016-Jul-01 09:34 UTC. Time now 2016-Jul-01 10:04 UTC.
Position N 51°15' E 004°22'.

Length 163 m; draft 9.6 m.

Type: Ship (hazmat cat A). MMSI: 319591000.

Date/timePositionNaut miles runAvg speedWind from/ knotsBaromVisibWave heightAir tempDewpointWater temp
2016-Jul-01 09:34N 51°15' E 004°22'0 0.0
2016-Jul-01 08:31N 51°15' E 004°22'0 0.0
2016-Jul-01 07:31N 51°15' E 004°22'0 0.0
2016-Jul-01 06:31N 51°15' E 004°22'0 0.0
2016-Jul-01 05:31N 51°15' E 004°22'0 0.0
2016-Jul-01 04:31N 51°15' E 004°22'0 0.0
2016-Jul-01 03:31N 51°15' E 004°22'0 0.0
2016-Jul-01 02:31N 51°15' E 004°22'0 0.0
2016-Jul-01 01:28N 51°15' E 004°22'0 0.0
2016-Jul-01 00:31N 51°15' E 004°22'0 0.0
2016-Jun-30 23:31N 51°15' E 004°22'0 0.0
2016-Jun-30 22:31N 51°15' E 004°22'0 0.0
2016-Jun-30 21:31N 51°15' E 004°22'0 0.0
2016-Jun-30 20:31N 51°15' E 004°22'0 0.0
2016-Jun-30 19:31N 51°15' E 004°22'0 0.0
2016-Jun-30 18:31N 51°15' E 004°22'0 0.0
2016-Jun-30 17:28N 51°15' E 004°22'0 0.0
2016-Jun-30 16:28N 51°15' E 004°22'0 0.0
2016-Jun-30 15:31N 51°15' E 004°22'0 0.0
2016-Jun-30 14:31N 51°15' E 004°22'0 0.0
2016-Jun-30 13:31N 51°15' E 004°22'0 0.0
2016-Jun-30 12:28N 51°15' E 004°22'0 0.0
2016-Jun-30 11:31N 51°15' E 004°22'0 0.0
2016-Jun-30 10:28N 51°15' E 004°22'0 0.0
2016-Jun-30 09:31N 51°15' E 004°22'0 0.0
2016-Jun-30 08:28N 51°15' E 004°22'0 0.0
2016-Jun-30 07:31N 51°15' E 004°22'0 0.0
2016-Jun-30 06:25N 51°15' E 004°22'0 0.0
2016-Jun-30 05:31N 51°15' E 004°22'0 0.0
2016-Jun-30 04:31N 51°15' E 004°22'0 0.0
2016-Jun-30 03:31N 51°15' E 004°22'0 0.0
2016-Jun-30 02:31N 51°15' E 004°22'0 0.0
2016-Jun-30 01:31N 51°15' E 004°22'0 0.0
2016-Jun-30 00:31N 51°15' E 004°22'0 0.0
2016-Jun-29 23:31N 51°15' E 004°22'0 0.0
2016-Jun-29 22:31N 51°15' E 004°22'0 0.0
2016-Jun-29 21:31N 51°15' E 004°22'0 0.0
2016-Jun-29 20:31N 51°15' E 004°22'3 2.7
2016-Jun-29 19:33N 51°18' E 004°20'4 3.9
2016-Jun-29 18:27N 51°22' E 004°17'0 0.0
2016-Jun-29 16:21N 51°22' E 004°17'0 0.0
2016-Jun-29 08:27N 51°22' E 004°17'0 0.0
2016-Jun-29 06:09N 51°22' E 004°17'0 0.0
2016-Jun-29 04:15N 51°22' E 004°17'0 0.0
2016-Jun-28 17:34N 51°22' E 004°17'1 0.9
2016-Jun-28 16:33N 51°21' E 004°17'2 1.7
2016-Jun-28 15:33N 51°21' E 004°14'10 9.7
2016-Jun-28 14:33N 51°26' E 004°01'1110.6
2016-Jun-28 13:33N 51°22' E 003°45'9 9.1
2016-Jun-28 12:33N 51°25' E 003°31'1110.7
2016-Jun-28 11:34N 51°25' E 003°14'1010.0
2016-Jun-28 10:33N 51°23' E 002°58'1110.9
2016-Jun-28 09:33N 51°22' E 002°41'4 3.0
2016-Jun-28 08:17N 51°25' E 002°36'0 0.0
2016-Jun-28 07:32N 51°25' E 002°36'0 0.0
2016-Jun-28 04:32N 51°25' E 002°36'0 0.1
2016-Jun-28 03:23N 51°25' E 002°36'0 0.0
2016-Jun-28 02:32N 51°25' E 002°36'0 0.0
2016-Jun-28 00:26N 51°25' E 002°36'0 0.0
2016-Jun-27 19:20N 51°25' E 002°36'0 0.0
2016-Jun-27 18:26N 51°25' E 002°36'0 0.0
2016-Jun-27 17:23N 51°25' E 002°36'0 0.0
2016-Jun-27 16:32N 51°25' E 002°36'0 0.1
2016-Jun-27 15:14N 51°25' E 002°36'0 0.1
2016-Jun-27 14:29N 51°25' E 002°36'16 2.7
2016-Jun-27 08:34N 51°17' E 002°14'1514.8
2016-Jun-27 07:33N 51°10' E 001°53'1515.5
2016-Jun-27 06:33N 50°59' E 001°35'4814.4
2016-Jun-27 03:13N 50°26' E 000°40'2615.4
2016-Jun-27 01:33N 50°19' E 000°01'21813.6
2016-Jun-26 09:29N 48°56' W 005°10'63213.3
2016-Jun-24 10:06N 38°59' W 009°57'913.6
2016-Jun-24 09:24N 38°49' W 009°57'1113.5
2016-Jun-24 08:33N 38°38' W 009°55'5613.8
2016-Jun-24 04:32N 37°44' W 009°40'4313.3
2016-Jun-24 01:19N 37°02' W 009°27'2812.8
2016-Jun-23 23:07N 36°39' W 009°07'2213.7
2016-Jun-23 21:32N 36°33' W 008°41'1313.8
2016-Jun-23 20:33N 36°30' W 008°25'1414.0
2016-Jun-23 19:33N 36°27' W 008°08'12814.2
2016-Jun-23 10:31N 35°58' W 005°33'1312.5
2016-Jun-23 09:31N 36°01' W 005°18'21913.6
2016-Jun-22 17:28N 36°39' W 000°51'1313.8
2016-Jun-22 16:33N 36°42' W 000°35'1414.1
2016-Jun-22 15:33N 36°45' W 000°18'1514.4
2016-Jun-22 14:33N 36°48' W 000°00'9215.2
2016-Jun-22 08:31N 37°06' E 001°52'1414.9
2016-Jun-22 07:33N 37°09' E 002°09'1814.8
2016-Jun-22 06:22N 37°13' E 002°31'1214.4
2016-Jun-22 05:32N 37°16' E 002°45'1414.1
2016-Jun-22 04:33N 37°18' E 003°03'2813.8
2016-Jun-22 02:33N 37°24' E 003°36'  

Dump ship's entire track history